createdAt,value
2023-02-20T00:01:03.601Z,6.27
2023-02-20T00:03:31.644Z,6.67
2023-02-20T00:05:59.198Z,5.70
2023-02-20T00:08:26.560Z,5.80
2023-02-20T00:10:54.117Z,5.60
2023-02-20T00:13:21.543Z,6.23
2023-02-20T00:15:48.932Z,5.97
2023-02-20T00:18:16.480Z,4.87
2023-02-20T00:20:43.913Z,6.73
2023-02-20T00:23:11.425Z,6.30
2023-02-20T00:25:38.801Z,6.70
2023-02-20T00:28:06.584Z,5.37
2023-02-20T00:30:33.995Z,6.60
2023-02-20T00:33:02.623Z,6.67
2023-02-20T00:35:30.162Z,6.67
2023-02-20T00:37:57.599Z,7.00
2023-02-20T00:40:26.019Z,6.70
2023-02-20T00:42:53.422Z,7.60
2023-02-20T00:45:21.096Z,7.53
2023-02-20T00:47:48.574Z,7.17
2023-02-20T00:50:16.720Z,7.27
2023-02-20T00:52:45.661Z,7.40
2023-02-20T00:55:13.053Z,9.10
2023-02-20T00:57:40.543Z,9.23
2023-02-20T01:00:09.677Z,6.70
2023-02-20T01:02:39.210Z,9.27
2023-02-20T01:05:06.711Z,9.87
2023-02-20T01:07:34.104Z,9.07
2023-02-20T01:10:01.497Z,9.87
2023-02-20T01:12:28.962Z,10.77
2023-02-20T01:14:56.352Z,11.57
2023-02-20T01:17:23.797Z,11.20
2023-02-20T01:19:51.178Z,11.40
2023-02-20T01:22:20.919Z,9.70
2023-02-20T01:24:49.817Z,10.73
2023-02-20T01:27:17.390Z,11.90
2023-02-20T01:29:44.813Z,12.00
2023-02-20T01:32:13.037Z,13.07
2023-02-20T01:34:41.086Z,12.70
2023-02-20T01:37:08.525Z,10.33
2023-02-20T01:39:35.970Z,13.17
2023-02-20T01:42:05.449Z,7.83
2023-02-20T01:44:34.396Z,12.80
2023-02-20T01:47:02.659Z,13.03
2023-02-20T01:49:36.519Z,11.53
2023-02-20T01:52:08.143Z,12.07
2023-02-20T01:54:36.376Z,9.90
2023-02-20T01:57:04.732Z,10.70
2023-02-20T01:59:34.578Z,11.03
2023-02-20T02:02:02.144Z,10.17
2023-02-20T02:04:30.026Z,10.53
2023-02-20T02:06:57.727Z,11.00
2023-02-20T02:09:30.137Z,13.20
2023-02-20T02:11:57.491Z,12.13
2023-02-20T02:14:24.921Z,10.17
2023-02-20T02:16:56.394Z,11.57
2023-02-20T02:19:23.749Z,10.97
2023-02-20T02:22:01.662Z,12.90
2023-02-20T02:24:44.492Z,12.37
2023-02-20T02:27:30.734Z,12.10
2023-02-20T02:30:04.253Z,10.30
2023-02-20T02:32:34.937Z,11.20
2023-02-20T02:35:21.047Z,11.47
2023-02-20T02:38:01.912Z,11.97
2023-02-20T02:40:42.576Z,12.57
2023-02-20T02:43:12.974Z,13.20
2023-02-20T02:45:52.432Z,11.30
2023-02-20T02:48:26.505Z,12.33
2023-02-20T02:50:55.272Z,15.53
2023-02-20T02:53:22.666Z,13.37
2023-02-20T02:55:50.047Z,11.73
2023-02-20T02:58:17.815Z,13.53
2023-02-20T03:00:58.709Z,15.20
2023-02-20T03:03:33.628Z,16.97
2023-02-20T03:07:48.217Z,17.33
2023-02-20T03:10:20.710Z,17.70
2023-02-20T03:12:50.464Z,19.70
2023-02-20T03:15:34.001Z,19.17
2023-02-20T03:18:10.463Z,18.90
2023-02-20T03:20:46.377Z,18.87
2023-02-20T03:23:16.679Z,18.17
2023-02-20T03:25:50.978Z,17.37
2023-02-20T03:28:21.880Z,19.33
2023-02-20T03:31:01.015Z,18.77
2023-02-20T03:34:07.032Z,17.43
2023-02-20T03:36:56.290Z,16.63
2023-02-20T03:39:45.796Z,18.40
2023-02-20T03:42:34.424Z,15.33
2023-02-20T03:45:09.360Z,15.13
2023-02-20T03:47:38.088Z,9.60
2023-02-20T03:50:25.648Z,13.00
2023-02-20T03:52:55.672Z,16.43
2023-02-20T03:55:24.594Z,17.23
2023-02-20T03:57:54.455Z,13.33
2023-02-20T04:00:26.545Z,16.43
2023-02-20T04:02:54.986Z,17.00
2023-02-20T04:05:31.363Z,16.90
2023-02-20T04:08:23.346Z,14.07
2023-02-20T04:10:50.761Z,15.07
2023-02-20T04:13:18.952Z,16.13
2023-02-20T04:15:49.247Z,16.17
2023-02-20T04:18:18.474Z,16.93
2023-02-20T04:20:47.629Z,14.47
2023-02-20T04:23:28.081Z,12.80
2023-02-20T04:26:01.551Z,14.33
2023-02-20T04:28:33.598Z,15.10
2023-02-20T04:31:03.810Z,15.90
2023-02-20T04:33:33.648Z,15.03
2023-02-20T04:36:05.372Z,14.23
2023-02-20T04:38:32.753Z,14.00
2023-02-20T04:41:04.925Z,12.47
2023-02-20T04:43:32.314Z,14.10
2023-02-20T04:45:59.816Z,12.30
2023-02-20T04:48:27.239Z,15.33
2023-02-20T04:50:54.768Z,13.27
2023-02-20T04:53:22.202Z,12.97
2023-02-20T04:55:49.663Z,13.53
2023-02-20T04:58:20.518Z,13.13
2023-02-20T05:00:52.295Z,11.27
2023-02-20T05:03:19.875Z,13.27
2023-02-20T05:05:47.468Z,15.53
2023-02-20T05:08:14.774Z,12.80
2023-02-20T05:10:42.335Z,13.70
2023-02-20T05:13:09.682Z,14.10
2023-02-20T05:15:37.037Z,12.93
2023-02-20T05:18:04.544Z,11.33
2023-02-20T05:20:50.575Z,12.30
2023-02-20T05:23:17.895Z,10.33
2023-02-20T05:25:45.255Z,13.50
2023-02-20T05:28:12.568Z,14.00
2023-02-20T05:30:40.590Z,14.13
2023-02-20T05:33:08.014Z,14.00
2023-02-20T05:35:35.924Z,14.03
2023-02-20T05:38:03.297Z,16.42
2023-02-20T05:40:32.300Z,13.10
2023-02-20T05:42:59.671Z,12.70
2023-02-20T05:45:27.019Z,13.07
2023-02-20T05:47:54.381Z,14.13
2023-02-20T05:50:21.785Z,13.97
2023-02-20T05:52:49.153Z,12.10
2023-02-20T05:55:16.697Z,13.20
2023-02-20T05:57:44.038Z,14.53
2023-02-20T06:00:11.703Z,14.07
2023-02-20T06:02:41.970Z,14.23
2023-02-20T06:05:09.433Z,12.17
2023-02-20T06:07:36.905Z,12.60
2023-02-20T06:10:04.984Z,14.73
2023-02-20T06:12:32.318Z,17.27
2023-02-20T06:14:59.718Z,13.37
2023-02-20T06:17:27.764Z,18.40
2023-02-20T06:19:55.123Z,19.05
2023-02-20T06:22:22.669Z,17.23
2023-02-20T06:24:50.014Z,17.60
2023-02-20T06:27:18.152Z,15.37
2023-02-20T06:29:47.638Z,16.37
2023-02-20T06:32:15.047Z,18.97
2023-02-20T06:34:42.452Z,18.83
2023-02-20T06:37:09.779Z,22.57
2023-02-20T06:39:37.523Z,16.93
2023-02-20T06:42:04.973Z,21.43
2023-02-20T06:44:33.367Z,23.90
2023-02-20T06:47:01.420Z,25.17
2023-02-20T06:49:28.744Z,20.13
2023-02-20T06:51:56.242Z,25.70
2023-02-20T06:54:23.680Z,23.47
2023-02-20T06:56:52.533Z,23.37
2023-02-20T06:59:19.964Z,28.13
2023-02-20T07:01:47.331Z,27.77
2023-02-20T07:04:17.166Z,26.40
2023-02-20T07:06:44.627Z,24.60
2023-02-20T07:09:12.306Z,25.77
2023-02-20T07:11:40.071Z,25.97
2023-02-20T07:14:07.599Z,30.63
2023-02-20T07:16:35.032Z,29.97
2023-02-20T07:19:02.424Z,28.77
2023-02-20T07:21:29.779Z,21.03
2023-02-20T07:23:57.180Z,30.90
2023-02-20T07:26:26.420Z,21.57
2023-02-20T07:28:54.929Z,30.13
2023-02-20T07:31:22.557Z,23.87
2023-02-20T07:33:49.907Z,26.30
2023-02-20T07:36:17.644Z,32.33
2023-02-20T07:38:53.455Z,18.47
2023-02-20T07:41:20.802Z,26.80
2023-02-20T07:43:48.134Z,25.90
2023-02-20T07:46:17.221Z,28.60
2023-02-20T07:48:45.729Z,24.87
2023-02-20T07:51:13.106Z,24.90
2023-02-20T07:53:40.547Z,24.57
2023-02-20T07:56:07.929Z,27.07
2023-02-20T07:58:35.212Z,25.00
2023-02-20T08:01:02.604Z,23.77
2023-02-20T08:03:29.917Z,23.17
2023-02-20T08:05:57.429Z,26.27
2023-02-20T08:08:25.555Z,22.83
2023-02-20T08:11:03.604Z,25.10
2023-02-20T08:13:36.036Z,17.57
2023-02-20T08:16:03.429Z,19.07
2023-02-20T08:18:30.798Z,15.43
2023-02-20T08:20:58.161Z,23.57
2023-02-20T08:23:25.931Z,22.03
2023-02-20T08:25:53.349Z,22.33
2023-02-20T08:28:20.983Z,19.77
2023-02-20T08:30:48.282Z,18.73
2023-02-20T08:33:15.670Z,20.80
2023-02-20T08:35:43.381Z,20.33
2023-02-20T08:38:43.036Z,19.60
2023-02-20T08:41:11.091Z,18.60
2023-02-20T08:43:39.448Z,19.13
2023-02-20T08:46:08.084Z,19.83
2023-02-20T08:48:35.677Z,16.63
2023-02-20T08:51:03.073Z,20.10
2023-02-20T08:53:30.399Z,21.07
2023-02-20T08:55:57.844Z,15.10
2023-02-20T08:58:25.666Z,20.53
2023-02-20T09:00:53.259Z,18.30
2023-02-20T09:03:20.776Z,20.03
2023-02-20T09:05:48.232Z,20.40
2023-02-20T09:08:15.731Z,19.03
2023-02-20T09:10:43.342Z,13.40
2023-02-20T09:13:10.933Z,17.83
2023-02-20T09:15:41.224Z,16.27
2023-02-20T09:18:10.006Z,15.83
2023-02-20T09:20:38.338Z,19.87
2023-02-20T09:23:06.383Z,22.43
2023-02-20T09:25:34.019Z,25.97
2023-02-20T09:28:01.357Z,24.87
2023-02-20T09:30:28.907Z,22.87
2023-02-20T09:32:56.256Z,19.27
2023-02-20T09:35:28.288Z,22.53
2023-02-20T09:37:55.711Z,26.37
2023-02-20T09:40:24.727Z,25.13
2023-02-20T09:43:04.277Z,24.53
2023-02-20T09:45:35.146Z,17.50
2023-02-20T09:48:11.581Z,19.87
2023-02-20T09:50:50.994Z,20.63
2023-02-20T09:53:18.345Z,18.80
2023-02-20T09:55:45.964Z,23.63
2023-02-20T09:58:19.603Z,25.83
2023-02-20T10:00:48.199Z,24.50
2023-02-20T10:03:34.543Z,25.23
2023-02-20T10:06:02.150Z,21.03
2023-02-20T10:08:29.785Z,25.77
2023-02-20T10:11:03.594Z,28.90
2023-02-20T10:13:34.002Z,16.43
2023-02-20T10:16:04.506Z,25.80
2023-02-20T10:18:43.270Z,25.07
2023-02-20T10:21:13.732Z,22.77
2023-02-20T10:23:49.362Z,23.40
2023-02-20T10:26:28.788Z,26.27
2023-02-20T10:28:56.961Z,27.97
2023-02-20T10:31:27.265Z,24.27
2023-02-20T10:34:04.667Z,23.13
2023-02-20T10:36:37.509Z,19.83
2023-02-20T10:39:14.049Z,23.67
2023-02-20T10:41:51.152Z,28.23
2023-02-20T10:44:21.860Z,20.37
2023-02-20T10:46:49.868Z,28.13
2023-02-20T10:49:26.144Z,21.40
2023-02-20T10:51:57.902Z,20.77
2023-02-20T10:54:44.844Z,26.60
2023-02-20T10:57:19.388Z,22.73
2023-02-20T10:59:59.430Z,19.37
2023-02-20T11:02:29.485Z,27.77
2023-02-20T11:05:02.558Z,20.80
2023-02-20T11:07:29.913Z,22.00
2023-02-20T11:09:57.198Z,24.97
2023-02-20T11:12:24.926Z,23.77
2023-02-20T11:14:52.752Z,26.47
2023-02-20T11:17:21.417Z,26.90
2023-02-20T11:19:56.501Z,27.23
2023-02-20T11:22:42.509Z,25.43
2023-02-20T11:25:17.958Z,24.93
2023-02-20T11:27:47.416Z,28.63
2023-02-20T11:30:35.293Z,23.13
2023-02-20T11:33:04.787Z,22.23
2023-02-20T11:35:35.995Z,23.20
2023-02-20T11:38:18.334Z,25.07
2023-02-20T11:40:47.346Z,23.00
2023-02-20T11:43:14.664Z,20.50
2023-02-20T11:45:42.883Z,23.23
2023-02-20T11:48:12.474Z,22.23
2023-02-20T11:50:41.492Z,21.07
2023-02-20T11:53:29.771Z,16.43
2023-02-20T11:56:09.308Z,19.50
2023-02-20T11:58:37.751Z,21.20
2023-02-20T12:01:05.666Z,22.23
2023-02-20T12:03:34.652Z,21.17
2023-02-20T12:06:06.051Z,20.73
2023-02-20T12:08:39.595Z,18.60
2023-02-20T12:11:23.195Z,19.60
2023-02-20T12:13:51.271Z,21.93
2023-02-20T12:16:18.614Z,22.83
2023-02-20T12:18:50.224Z,17.53
2023-02-20T12:21:21.863Z,13.63
2023-02-20T12:23:54.502Z,18.20
2023-02-20T12:26:24.631Z,19.53
2023-02-20T12:28:51.986Z,14.60
2023-02-20T12:31:39.068Z,19.23
2023-02-20T12:34:06.382Z,21.40
2023-02-20T12:37:06.076Z,17.97
2023-02-20T12:39:53.456Z,20.70
2023-02-20T12:42:43.893Z,12.50
2023-02-20T12:45:17.244Z,18.70
2023-02-20T12:47:45.900Z,21.07
2023-02-20T12:50:18.575Z,17.97
2023-02-20T12:52:55.859Z,22.13
2023-02-20T12:55:35.396Z,18.67
2023-02-20T12:58:06.380Z,17.50
2023-02-20T13:00:42.033Z,14.63
2023-02-20T13:03:09.284Z,16.10
2023-02-20T13:05:38.970Z,18.07
2023-02-20T13:08:18.826Z,13.40
2023-02-20T13:10:49.133Z,17.50
2023-02-20T13:13:16.940Z,15.10
2023-02-20T13:15:56.920Z,18.90
2023-02-20T13:18:30.386Z,17.60
2023-02-20T13:20:59.213Z,12.97
2023-02-20T13:23:28.128Z,16.80
2023-02-20T13:25:56.573Z,15.53
2023-02-20T13:28:27.449Z,13.33
2023-02-20T13:31:06.837Z,17.60
2023-02-20T13:33:36.350Z,16.27
2023-02-20T13:36:04.311Z,14.13
2023-02-20T13:38:31.812Z,19.17
2023-02-20T13:40:59.121Z,14.43
2023-02-20T13:43:35.663Z,16.93
2023-02-20T13:46:14.773Z,12.87
2023-02-20T13:48:46.790Z,14.53
2023-02-20T13:51:25.136Z,17.27
2023-02-20T13:53:57.411Z,14.43
2023-02-20T13:56:30.190Z,15.97
2023-02-20T13:58:59.376Z,16.60
2023-02-20T14:01:26.899Z,13.47
2023-02-20T14:04:02.079Z,17.77
2023-02-20T14:06:29.593Z,13.50
2023-02-20T14:09:10.927Z,16.60
2023-02-20T14:11:39.731Z,17.23
2023-02-20T14:14:22.176Z,17.20
2023-02-20T14:16:49.624Z,15.13
2023-02-20T14:19:19.903Z,15.73
2023-02-20T14:21:47.489Z,17.03
2023-02-20T14:24:26.380Z,13.17
2023-02-20T14:26:57.622Z,17.77
2023-02-20T14:29:29.762Z,12.40
2023-02-20T14:32:01.680Z,17.17
2023-02-20T14:34:38.333Z,16.47
2023-02-20T14:37:19.988Z,13.03
2023-02-20T14:39:50.265Z,11.80
2023-02-20T14:42:23.700Z,16.83
2023-02-20T14:44:53.962Z,17.30
2023-02-20T14:47:21.232Z,18.53
2023-02-20T14:49:48.550Z,17.30
2023-02-20T14:52:24.057Z,17.07
2023-02-20T14:55:02.217Z,18.43
2023-02-20T14:57:30.237Z,16.07
2023-02-20T15:00:24.275Z,15.93
2023-02-20T15:02:55.393Z,13.97
2023-02-20T15:05:31.354Z,12.63
2023-02-20T15:08:16.117Z,12.03
2023-02-20T15:10:45.062Z,14.90
2023-02-20T15:13:13.838Z,17.17
2023-02-20T15:15:43.015Z,15.17
2023-02-20T15:18:17.443Z,15.40
2023-02-20T15:20:46.026Z,17.77
2023-02-20T15:23:16.444Z,15.80
2023-02-20T15:25:44.720Z,16.33
2023-02-20T15:28:14.064Z,18.03
2023-02-20T15:31:00.000Z,17.83
2023-02-20T15:33:27.412Z,10.60
2023-02-20T15:35:54.860Z,12.80
2023-02-20T15:38:22.599Z,13.47
2023-02-20T15:40:49.924Z,16.00
2023-02-20T15:43:38.127Z,10.97
2023-02-20T15:46:04.682Z,12.43
2023-02-20T15:48:32.150Z,12.97
2023-02-20T15:50:59.637Z,12.93
2023-02-20T15:53:29.651Z,14.30
2023-02-20T15:55:58.688Z,11.83
2023-02-20T15:58:34.275Z,13.53
2023-02-20T16:01:02.578Z,12.53
2023-02-20T16:03:33.860Z,14.60
2023-02-20T16:06:04.259Z,15.47
2023-02-20T16:08:31.655Z,12.97
2023-02-20T16:10:58.984Z,14.30
2023-02-20T16:13:37.270Z,13.87
2023-02-20T16:16:23.264Z,13.43
2023-02-20T16:18:54.409Z,16.67
2023-02-20T16:21:22.176Z,15.60
2023-02-20T16:23:50.368Z,15.87
2023-02-20T16:26:18.717Z,18.47
2023-02-20T16:28:48.570Z,14.67
2023-02-20T16:31:16.029Z,16.50
2023-02-20T16:33:43.504Z,16.87
2023-02-20T16:36:16.653Z,15.60
2023-02-20T16:38:47.495Z,16.57
2023-02-20T16:41:15.344Z,16.10
2023-02-20T16:43:42.957Z,15.90
2023-02-20T16:46:10.402Z,16.97
2023-02-20T16:48:37.807Z,15.77
2023-02-20T16:51:06.418Z,11.40
2023-02-20T16:53:33.998Z,14.93
2023-02-20T16:56:01.414Z,16.07
2023-02-20T16:58:28.834Z,14.87
2023-02-20T17:00:57.870Z,17.17
2023-02-20T17:03:27.778Z,16.30
2023-02-20T17:05:59.526Z,12.63
2023-02-20T17:08:27.521Z,14.73
2023-02-20T17:10:54.896Z,12.23
2023-02-20T17:13:22.287Z,13.47
2023-02-20T17:15:49.721Z,14.73
2023-02-20T17:18:17.120Z,13.17
2023-02-20T17:20:44.517Z,16.90
2023-02-20T17:23:11.905Z,14.10
2023-02-20T17:25:39.288Z,13.23
2023-02-20T17:28:06.689Z,12.33
2023-02-20T17:30:34.157Z,15.43
2023-02-20T17:33:01.856Z,11.83
2023-02-20T17:35:29.242Z,15.03
2023-02-20T17:37:56.689Z,13.67
2023-02-20T17:40:24.161Z,15.23
2023-02-20T17:42:51.946Z,13.07
2023-02-20T17:45:19.324Z,15.53
2023-02-20T17:47:47.376Z,14.77
2023-02-20T17:50:17.406Z,14.37
2023-02-20T17:52:45.807Z,15.97
2023-02-20T17:55:20.098Z,11.63
2023-02-20T17:57:47.576Z,13.37
2023-02-20T18:00:15.612Z,16.60
2023-02-20T18:02:43.568Z,17.00
2023-02-20T18:05:11.201Z,16.07
2023-02-20T18:07:38.605Z,15.43
2023-02-20T18:10:06.516Z,16.37
2023-02-20T18:12:33.887Z,18.23
2023-02-20T18:15:01.461Z,17.23
2023-02-20T18:17:28.955Z,15.43
2023-02-20T18:19:56.403Z,18.97
2023-02-20T18:22:23.973Z,17.53
2023-02-20T18:24:51.421Z,18.93
2023-02-20T18:27:18.773Z,20.90
2023-02-20T18:29:46.145Z,13.33
2023-02-20T18:32:13.676Z,21.20
2023-02-20T18:34:41.175Z,18.10
2023-02-20T18:37:08.777Z,23.90
2023-02-20T18:39:36.309Z,20.53
2023-02-20T18:42:03.796Z,24.93
2023-02-20T18:44:31.508Z,26.57
2023-02-20T18:47:00.623Z,24.20
2023-02-20T18:49:28.396Z,26.83
2023-02-20T18:51:55.851Z,23.23
2023-02-20T18:54:32.876Z,20.50
2023-02-20T18:57:01.796Z,26.43
2023-02-20T18:59:31.178Z,21.63
2023-02-20T19:01:59.722Z,23.97
2023-02-20T19:04:27.171Z,29.97
2023-02-20T19:06:54.672Z,27.57
2023-02-20T19:09:24.324Z,27.07
2023-02-20T19:11:51.835Z,24.00
2023-02-20T19:14:19.927Z,25.77
2023-02-20T19:16:54.578Z,26.13
2023-02-20T19:19:24.322Z,29.63
2023-02-20T19:21:53.029Z,30.93
2023-02-20T19:24:20.716Z,30.90
2023-02-20T19:26:48.430Z,26.33
2023-02-20T19:29:15.897Z,30.47
2023-02-20T19:31:43.482Z,28.80
2023-02-20T19:34:10.984Z,30.47
2023-02-20T19:36:41.674Z,29.90
2023-02-20T19:39:09.815Z,29.73
2023-02-20T19:41:39.452Z,28.70
2023-02-20T19:44:07.900Z,30.93
2023-02-20T19:46:35.590Z,31.00
2023-02-20T19:49:09.711Z,29.67
2023-02-20T19:51:37.186Z,37.30
2023-02-20T19:54:04.783Z,39.10
2023-02-20T19:56:32.082Z,32.57
2023-02-20T19:59:00.013Z,35.33
2023-02-20T20:01:27.625Z,38.13
2023-02-20T20:03:55.062Z,27.33
2023-02-20T20:06:25.920Z,32.60
2023-02-20T20:09:10.991Z,32.23
2023-02-20T20:11:40.964Z,35.47
2023-02-20T20:14:08.447Z,28.70
2023-02-20T20:16:37.990Z,34.67
2023-02-20T20:19:06.190Z,34.60
2023-02-20T20:21:34.147Z,39.53
2023-02-20T20:24:01.511Z,34.23
2023-02-20T20:26:29.477Z,26.57
2023-02-20T20:28:57.159Z,36.80
2023-02-20T20:31:25.600Z,38.63
2023-02-20T20:33:53.301Z,41.07
2023-02-20T20:36:20.746Z,40.07
2023-02-20T20:38:48.099Z,46.58
2023-02-20T20:41:15.947Z,54.00
2023-02-20T20:43:47.534Z,44.67
2023-02-20T20:46:16.480Z,43.23
2023-02-20T20:48:45.559Z,43.00
2023-02-20T20:51:14.106Z,37.77
2023-02-20T20:53:41.633Z,38.83
2023-02-20T20:56:09.663Z,39.30
2023-02-20T20:58:37.422Z,37.17
2023-02-20T21:01:05.425Z,38.73
2023-02-20T21:03:32.892Z,42.57
2023-02-20T21:06:00.822Z,39.20
2023-02-20T21:08:28.566Z,30.07
2023-02-20T21:10:55.938Z,35.13
2023-02-20T21:13:23.330Z,40.67
2023-02-20T21:15:50.788Z,37.73
2023-02-20T21:18:19.645Z,34.87
2023-02-20T21:20:46.980Z,34.90
2023-02-20T21:23:14.378Z,33.90
2023-02-20T21:25:41.909Z,35.93
2023-02-20T21:28:09.598Z,37.60
2023-02-20T21:30:37.148Z,37.13
2023-02-20T21:33:04.577Z,34.03
2023-02-20T21:35:32.092Z,38.83
2023-02-20T21:37:59.481Z,33.50
2023-02-20T21:40:27.134Z,31.23
2023-02-20T21:43:13.248Z,40.47
2023-02-20T21:45:40.722Z,35.97
2023-02-20T21:48:08.124Z,29.23
2023-02-20T21:50:35.427Z,41.37
2023-02-20T21:53:03.300Z,34.23
2023-02-20T21:55:31.118Z,33.00
2023-02-20T21:57:59.018Z,38.20
2023-02-20T22:00:26.292Z,39.33
2023-02-20T22:02:53.674Z,28.67
2023-02-20T22:05:21.016Z,34.73
2023-02-20T22:08:07.046Z,37.73
2023-02-20T22:10:53.035Z,31.03
2023-02-20T22:13:38.816Z,39.53
2023-02-20T22:16:24.806Z,30.53
2023-02-20T22:19:10.762Z,30.37
2023-02-20T22:21:56.820Z,31.37
2023-02-20T22:24:42.848Z,41.83
2023-02-20T22:27:29.314Z,36.67
2023-02-20T22:30:19.806Z,42.27
2023-02-20T22:33:11.434Z,41.30
2023-02-20T22:35:57.473Z,38.20
2023-02-20T22:38:43.509Z,38.53
2023-02-20T22:41:29.373Z,34.53
2023-02-20T22:44:15.386Z,35.20
2023-02-20T22:47:01.658Z,38.03
2023-02-20T22:49:47.722Z,44.23
2023-02-20T22:52:33.497Z,42.67
2023-02-20T22:55:19.437Z,38.47
2023-02-20T22:58:05.513Z,42.93
2023-02-20T23:00:51.451Z,39.47
2023-02-20T23:03:37.590Z,34.07
2023-02-20T23:06:23.456Z,45.73
2023-02-20T23:09:09.280Z,40.73
2023-02-20T23:11:56.003Z,35.60
2023-02-20T23:14:42.826Z,40.53
2023-02-20T23:17:36.380Z,34.47
2023-02-20T23:20:25.321Z,43.67
2023-02-20T23:23:12.531Z,40.27
2023-02-20T23:25:58.407Z,39.60
2023-02-20T23:28:44.423Z,46.17
2023-02-20T23:31:30.391Z,41.40
2023-02-20T23:34:16.464Z,36.97
2023-02-20T23:37:11.512Z,39.80
2023-02-20T23:39:57.503Z,36.73
2023-02-20T23:42:43.518Z,38.67
2023-02-20T23:45:29.918Z,35.17
2023-02-20T23:48:15.796Z,31.67
2023-02-20T23:51:01.762Z,37.30
2023-02-20T23:53:48.264Z,39.27
2023-02-20T23:56:34.319Z,37.10
2023-02-20T23:59:20.082Z,43.23
